Forest Lakes, Arizona
Current Conditions -  °F | °C
As of 10:35 AM on Thursday 30 Oct 2014 (Local Time) from KSOW Reporting Station
Clear Clear  
Wind Chill: 59°   Ceiling: Unl
Heat Index: 59°   Visibility: 10mi
Dew Point: 27°   Wind: 5mph
Humidity: 29%   Direction: 350°N
Pressure: 30.37"   Gusts: NA
Location:  34.43°N, 110.6°W
Report Text: KSOW 301735Z AUTO 35004KT 10SM CLR 15/M03 A3037 RMK AO2
Loading
Personal Weather Stations






























Interactive Weather Map
Tropical Storm Tracking
New forecast layout! Learn more

10-Day Weather Forecast

Advertisements
Track Severe Weather on mobile